Current Conditions
Rain
Showers




Pressure
1001.92 (mb) - 29.59 (inHG)
Visibility

10.0 (km) - 6.2 (miles)
   Temperature
6  °C
43°F
3  °C
Dewpoint
81  %
 Humidity
   Wind Speed
10.7  m/s
24  mph
39  km/h
21  kts
   Wind Direction
 240°
West South
West
   Airport Data
ENAL
Location Ă…lesund 10 km (6.22 mi)
Metar :ENAL 181350Z 24021KT 9999 -SHRA SCT018 BKN026 06/03 Q1002
Sat 18th January 14:50 pm
   Raw Metar Info
Raw METAR is the most common format in the world for the transmission of observational weather data. It is highly standardized through the International Civil Aviation Organization (ICAO), which allows it to be understood throughout most of the world.
   API Info
Data Provided by
https://www.checkwx.com/weather/ENAL
   © Info
CSS/SVG/PHP scripts were developed by weather34.com for use in the weather34 template © 2015-2020

Guide Info provided by Metar-Wikipedia